Time;durP1;ratioP1;P1;durP2;ratioP2;P2;SDS_P1;SDS_P2;PMS_P1;PMS_P2;Temp;Humidity;BMP_temperature;BMP_pressure;BME280_temperature;BME280_humidity;BME280_pressure;Samples;Min_cycle;Max_cycle;Signal;HPM_P1;HPM_P2
2022/03/25 00:03:51;;;;;;;125.75;43.68;;;;;;;4.64;53.80;101487.63;738795;1155;115305;-74
2022/03/25 00:18:54;;;;;;;62.60;27.50;;;;;;;4.53;53.81;101471.67;739916;1154;114180;-74
2022/03/25 00:33:56;;;;;;;73.95;29.28;;;;;;;4.41;54.46;101475.66;739654;1154;114888;-74
2022/03/25 00:48:59;;;;;;;112.17;38.90;;;;;;;4.11;55.37;101467.41;739105;1155;114942;-75
2022/03/25 01:04:01;;;;;;;94.98;35.33;;;;;;;4.05;55.30;101455.55;739006;1155;114165;-76
2022/03/25 01:19:04;;;;;;;117.10;37.38;;;;;;;3.83;55.33;101455.58;739110;1155;115241;-74
2022/03/25 01:34:06;;;;;;;108.13;39.90;;;;;;;3.63;55.06;101459.00;739889;1154;115322;-74
2022/03/25 01:49:08;;;;;;;96.33;36.35;;;;;;;3.29;56.36;101440.40;738840;1155;115200;-74
2022/03/25 02:04:11;;;;;;;118.40;42.15;;;;;;;3.29;56.48;101439.57;738959;1155;114659;-74
2022/03/25 02:19:18;;;;;;;66.53;26.87;;;;;;;3.00;56.69;101442.36;739008;1154;114990;-75
2022/03/25 02:34:25;;;;;;;86.08;32.98;;;;;;;2.93;58.10;101434.88;738881;1155;115377;-74
2022/03/25 02:49:27;;;;;;;84.78;30.98;;;;;;;2.71;58.48;101435.69;740851;1155;114112;-75
2022/03/25 03:04:29;;;;;;;81.47;29.03;;;;;;;2.64;58.79;101427.29;739716;1154;113982;-74
2022/03/25 03:19:31;;;;;;;68.88;27.75;;;;;;;2.46;59.42;101426.20;738900;1155;115510;-74
2022/03/25 03:34:33;;;;;;;61.27;24.87;;;;;;;2.38;59.74;101430.81;740247;1155;115416;-73
2022/03/25 03:49:36;;;;;;;78.00;29.50;;;;;;;2.19;60.06;101440.13;740128;1155;115687;-69
2022/03/25 04:04:38;;;;;;;55.53;23.87;;;;;;;2.13;60.02;101425.66;739592;1155;114716;-78
2022/03/25 04:19:40;;;;;;;75.55;28.73;;;;;;;1.92;60.61;101422.06;741353;1155;114852;-77
2022/03/25 04:34:42;;;;;;;54.38;22.53;;;;;;;1.96;61.05;101428.81;739636;1154;114321;-74
2022/03/25 04:49:44;;;;;;;56.33;23.40;;;;;;;2.05;61.49;101435.44;739848;1155;115216;-75
2022/03/25 05:04:46;;;;;;;66.73;27.68;;;;;;;2.07;61.85;101449.16;739627;1155;114574;-76
2022/03/25 05:19:48;;;;;;;383.00;75.55;;;;;;;2.11;62.52;101451.61;739115;1155;115360;-75
2022/03/25 05:34:51;;;;;;;109.03;36.30;;;;;;;2.33;62.37;101458.63;739368;1155;115701;-76
2022/03/25 05:49:53;;;;;;;78.38;31.05;;;;;;;2.43;62.57;101456.54;739331;1155;114302;-71
2022/03/25 06:04:55;;;;;;;79.75;29.63;;;;;;;2.83;62.71;101465.48;738881;1155;115342;-70
2022/03/25 06:19:58;;;;;;;116.68;37.75;;;;;;;3.81;63.42;101462.58;739402;1155;115202;-70
2022/03/25 06:35:00;;;;;;;73.20;27.58;;;;;;;5.39;61.41;101455.67;738850;1153;115815;-70
2022/03/25 06:50:05;;;;;;;63.50;28.50;;;;;;;6.71;60.80;101463.02;739120;1154;115666;-70
2022/03/25 07:05:10;;;;;;;53.47;23.90;;;;;;;8.02;59.77;101468.79;739520;1154;115693;-71
2022/03/25 07:20:14;;;;;;;51.63;22.97;;;;;;;9.31;59.55;101469.73;739763;1155;115375;-76
2022/03/25 07:35:17;;;;;;;95.08;37.83;;;;;;;10.77;58.06;101471.45;740715;1155;114906;-78
2022/03/25 07:50:22;;;;;;;63.00;26.45;;;;;;;12.07;56.02;101477.86;741737;1155;115164;-75
2022/03/25 08:05:24;;;;;;;57.68;25.20;;;;;;;13.14;54.95;101488.89;739572;1155;115148;-76
2022/03/25 08:20:35;;;;;;;62.63;27.03;;;;;;;13.93;54.40;101478.09;739679;1155;115092;-75
2022/03/25 08:35:40;;;;;;;57.18;28.88;;;;;;;14.79;53.03;101490.25;739959;1155;115065;-75
2022/03/25 08:50:42;;;;;;;72.07;33.53;;;;;;;14.80;51.95;101491.93;740431;1154;115832;-74
2022/03/25 09:05:44;;;;;;;62.08;29.85;;;;;;;15.35;51.07;101473.02;739675;1155;115764;-74
2022/03/25 09:20:47;;;;;;;63.33;31.27;;;;;;;16.07;50.08;101468.25;739751;1155;114713;-76
2022/03/25 09:35:50;;;;;;;60.05;30.33;;;;;;;17.06;49.15;101463.43;740301;1155;114897;-71
2022/03/25 09:50:53;;;;;;;79.35;38.28;;;;;;;17.39;48.39;101448.67;740127;1155;114937;-70
2022/03/25 10:06:15;;;;;;;67.33;37.28;;;;;;;17.97;47.20;101462.44;740213;1154;116048;-71
2022/03/25 10:21:20;;;;;;;62.55;28.58;;;;;;;18.01;44.92;101457.66;739692;1155;115468;-71
2022/03/25 10:36:25;;;;;;;51.05;23.63;;;;;;;18.60;44.39;101455.16;739878;1155;114978;-72
2022/03/25 10:51:28;;;;;;;67.35;30.60;;;;;;;19.20;44.87;101448.04;739868;1155;115870;-72
2022/03/25 11:06:33;;;;;;;40.60;20.20;;;;;;;18.73;43.51;101426.30;740434;1155;115789;-70
2022/03/25 11:21:40;;;;;;;39.75;22.35;;;;;;;19.10;43.23;101424.27;740397;1155;115867;-72
2022/03/25 11:36:44;;;;;;;46.87;22.83;;;;;;;19.18;42.28;101391.54;741161;1155;115985;-71
2022/03/25 11:51:46;;;;;;;37.90;17.43;;;;;;;19.14;40.28;101368.94;740733;1155;115793;-72
2022/03/25 12:07:01;;;;;;;35.60;15.38;;;;;;;20.27;39.49;101370.73;740376;1155;115746;-72
2022/03/25 12:22:18;;;;;;;30.33;14.70;;;;;;;20.26;38.83;101348.61;740238;1155;114953;-72
2022/03/25 12:37:32;;;;;;;29.65;16.60;;;;;;;20.83;38.39;101305.84;740250;1155;115530;-72
2022/03/25 12:52:34;;;;;;;35.75;17.85;;;;;;;21.23;38.62;101322.50;739747;1153;114851;-72
2022/03/25 13:07:37;;;;;;;38.75;18.20;;;;;;;21.16;39.97;101321.58;740368;1155;114414;-72
2022/03/25 13:22:57;;;;;;;31.37;16.77;;;;;;;21.07;40.20;101302.95;740173;1155;115627;-72
2022/03/25 13:38:02;;;;;;;51.40;21.30;;;;;;;21.60;40.54;101294.98;740622;1155;115593;-71
2022/03/25 13:53:10;;;;;;;23.70;13.95;;;;;;;24.14;39.66;101276.04;740590;1155;116013;-70
2022/03/25 14:08:13;;;;;;;28.40;15.05;;;;;;;30.57;35.90;101255.32;740053;1155;115820;-70
2022/03/25 14:23:19;;;;;;;31.45;12.40;;;;;;;30.52;35.12;101237.09;739863;1155;115555;-75
2022/03/25 14:38:21;;;;;;;13.85;6.75;;;;;;;32.64;34.29;101224.97;740217;1155;115602;-77
2022/03/25 14:53:23;;;;;;;25.93;8.30;;;;;;;27.62;36.12;101214.66;740808;1154;114879;-76
2022/03/25 15:08:26;;;;;;;27.08;9.68;;;;;;;25.52;37.65;101194.13;741270;1155;114877;-76
2022/03/25 15:23:28;;;;;;;23.60;10.08;;;;;;;30.75;35.62;101189.25;741716;1153;115066;-76
2022/03/25 15:38:32;;;;;;;21.73;10.85;;;;;;;24.68;36.13;101177.77;740356;1155;114385;-76
2022/03/25 15:53:34;;;;;;;18.75;10.40;;;;;;;23.68;37.81;101155.11;740471;1155;115513;-73
2022/03/25 16:08:37;;;;;;;73.40;40.58;;;;;;;25.32;38.16;101146.66;741274;1155;114844;-72
2022/03/25 16:23:39;;;;;;;40.23;21.90;;;;;;;23.14;39.14;101147.89;740292;1155;115699;-70
2022/03/25 16:38:42;;;;;;;44.08;24.35;;;;;;;20.52;41.25;101133.44;740669;1155;115002;-72
2022/03/25 16:53:45;;;;;;;93.93;41.78;;;;;;;19.16;42.65;101130.23;740081;1155;115710;-70
2022/03/25 17:08:48;;;;;;;169.00;90.92;;;;;;;17.78;44.38;101143.16;739809;1155;115980;-70
2022/03/25 17:23:51;;;;;;;191.08;82.70;;;;;;;16.90;45.71;101146.08;740516;1155;115971;-71
2022/03/25 17:39:00;;;;;;;104.03;47.38;;;;;;;16.00;46.60;101140.85;740260;1153;116020;-76
2022/03/25 17:54:03;;;;;;;183.65;97.53;;;;;;;15.48;48.21;101140.41;740128;1154;114663;-74
2022/03/25 18:09:06;;;;;;;272.93;110.48;;;;;;;14.61;48.55;101154.69;740273;1155;115374;-74
2022/03/25 18:24:09;;;;;;;219.28;99.60;;;;;;;14.01;49.80;101155.61;740149;1154;115330;-75
2022/03/25 18:39:12;;;;;;;158.68;73.53;;;;;;;13.51;51.05;101164.36;740695;1154;115003;-75
2022/03/25 18:54:15;;;;;;;138.10;55.95;;;;;;;13.03;51.45;101170.22;740894;1155;115005;-76
2022/03/25 19:09:22;;;;;;;299.88;111.88;;;;;;;12.65;52.74;101167.19;741522;1155;114568;-75
2022/03/25 19:24:24;;;;;;;199.80;80.67;;;;;;;12.11;53.19;101169.77;740995;1154;115307;-74
2022/03/25 19:39:27;;;;;;;186.88;76.50;;;;;;;11.79;54.00;101160.00;740691;1154;115574;-74
2022/03/25 19:54:30;;;;;;;140.28;54.53;;;;;;;11.19;54.85;101171.72;741183;1155;115879;-71
2022/03/25 20:09:34;;;;;;;87.53;39.23;;;;;;;10.82;55.52;101189.31;740309;1154;115323;-71
2022/03/25 20:24:36;;;;;;;81.75;34.23;;;;;;;10.80;56.17;101193.83;740374;1155;115622;-72
2022/03/25 20:39:40;;;;;;;115.55;45.55;;;;;;;10.74;56.75;101185.58;740320;1154;114796;-72
2022/03/25 20:54:42;;;;;;;69.13;26.88;;;;;;;10.45;57.52;101164.95;740695;1154;116021;-72
2022/03/25 21:09:45;;;;;;;68.83;30.17;;;;;;;10.29;58.12;101152.95;740024;1155;115591;-72
2022/03/25 21:24:48;;;;;;;61.70;27.50;;;;;;;10.54;59.18;101153.78;739883;1155;115811;-71
2022/03/25 21:39:50;;;;;;;41.95;19.93;;;;;;;10.53;58.40;101140.78;740107;1154;115858;-71
2022/03/25 21:54:53;;;;;;;48.53;17.97;;;;;;;10.54;58.97;101134.59;739737;1155;115784;-71
2022/03/25 22:09:56;;;;;;;38.03;18.20;;;;;;;10.51;59.31;101129.58;739930;1154;115811;-71
2022/03/25 22:24:59;;;;;;;46.98;18.95;;;;;;;10.43;60.67;101120.48;739419;1154;115507;-72
2022/03/25 22:40:03;;;;;;;41.23;17.90;;;;;;;10.25;61.40;101109.52;739893;1155;114830;-72
2022/03/25 22:55:07;;;;;;;33.80;16.93;;;;;;;10.20;61.74;101090.70;740008;1155;114430;-72
2022/03/25 23:10:10;;;;;;;28.17;14.73;;;;;;;10.27;61.69;101075.34;739503;1155;115579;-71
2022/03/25 23:25:12;;;;;;;25.47;12.73;;;;;;;10.34;61.92;101042.45;739523;1154;114940;-72
2022/03/25 23:40:14;;;;;;;29.13;13.35;;;;;;;10.36;63.31;101021.38;739687;1155;115881;-72
2022/03/25 23:55:21;;;;;;;29.80;13.65;;;;;;;10.47;63.58;101009.13;738881;1155;115952;-72
